Time;durP1;ratioP1;P1;durP2;ratioP2;P2;SDS_P1;SDS_P2;PMS_P1;PMS_P2;Temp;Humidity;BMP_temperature;BMP_pressure;BME280_temperature;BME280_humidity;BME280_pressure;Samples;Min_cycle;Max_cycle;Signal;HPM_P1;HPM_P2
2022/07/19 00:01:23;;;;;;;;;;;28.00;49.80;;;;;;5018119;28;19920;-87
2022/07/19 00:03:49;;;;;;;;;;;28.00;50.00;;;;;;5019813;28;19913;-87
2022/07/19 00:06:14;;;;;;;;;;;27.90;50.00;;;;;;5019238;28;19913;-88
2022/07/19 00:08:40;;;;;;;;;;;27.80;50.10;;;;;;5018083;28;19913;-88
2022/07/19 00:11:05;;;;;;;;;;;27.90;50.00;;;;;;5014757;28;19924;-86
2022/07/19 00:13:31;;;;;;;;;;;27.90;50.20;;;;;;5022720;28;20007;-87
2022/07/19 00:15:56;;;;;;;;;;;27.80;50.30;;;;;;5021060;28;19917;-86
2022/07/19 00:18:22;;;;;;;;;;;27.80;50.30;;;;;;4999101;28;19920;-86
2022/07/19 00:20:47;;;;;;;;;;;27.80;50.40;;;;;;5021902;28;19920;-87
2022/07/19 00:23:13;;;;;;;;;;;27.70;50.50;;;;;;5020097;28;19912;-87
2022/07/19 00:25:38;;;;;;;;;;;27.70;50.70;;;;;;5020837;28;19913;-86
2022/07/19 00:28:04;;;;;;;;;;;27.70;50.70;;;;;;5019108;28;19913;-87
2022/07/19 00:30:30;;;;;;;;;;;27.60;50.90;;;;;;5005067;28;19925;-88
2022/07/19 00:32:55;;;;;;;;;;;27.60;51.80;;;;;;5019713;28;19936;-86
2022/07/19 00:35:21;;;;;;;;;;;27.70;51.10;;;;;;5021289;28;19990;-87
2022/07/19 00:37:47;;;;;;;;;;;27.70;51.40;;;;;;5019537;28;19954;-87
2022/07/19 00:40:13;;;;;;;;;;;27.60;51.50;;;;;;5022019;28;19913;-87
2022/07/19 00:42:39;;;;;;;;;;;27.50;51.80;;;;;;5019585;28;20098;-87
2022/07/19 00:45:05;;;;;;;;;;;27.50;52.00;;;;;;5021777;28;19917;-87
2022/07/19 00:47:31;;;;;;;;;;;27.40;52.20;;;;;;5019676;28;19913;-87
2022/07/19 00:49:56;;;;;;;;;;;27.30;52.10;;;;;;5019413;28;19928;-87
2022/07/19 00:52:24;;;;;;;;;;;27.40;52.00;;;;;;5020778;28;19990;-87
2022/07/19 00:54:52;;;;;;;;;;;27.20;52.10;;;;;;5019725;28;19940;-88
2022/07/19 00:57:18;;;;;;;;;;;27.30;51.70;;;;;;5020542;28;19925;-87
2022/07/19 00:59:45;;;;;;;;;;;27.20;51.30;;;;;;5004423;28;19913;-87
2022/07/19 01:02:11;;;;;;;;;;;27.20;51.20;;;;;;5020799;28;19917;-87
2022/07/19 01:04:37;;;;;;;;;;;27.20;51.10;;;;;;5021402;28;19917;-87
2022/07/19 01:07:03;;;;;;;;;;;27.10;50.80;;;;;;5019194;28;19912;-86
2022/07/19 01:09:28;;;;;;;;;;;27.20;50.10;;;;;;5020562;28;19978;-87
2022/07/19 01:11:54;;;;;;;;;;;27.20;49.80;;;;;;5019134;28;20001;-87
2022/07/19 01:14:20;;;;;;;;;;;27.30;49.20;;;;;;5020203;28;19913;-88
2022/07/19 01:16:46;;;;;;;;;;;27.30;48.50;;;;;;5018879;28;20007;-88
2022/07/19 01:19:13;;;;;;;;;;;27.30;48.40;;;;;;5017140;28;19917;-86
2022/07/19 01:21:39;;;;;;;;;;;27.30;47.60;;;;;;5018580;28;20288;-87
2022/07/19 01:24:05;;;;;;;;;;;27.30;47.10;;;;;;5002942;28;19913;-88
2022/07/19 01:26:30;;;;;;;;;;;27.40;46.90;;;;;;5021571;28;19913;-87
2022/07/19 01:28:56;;;;;;;;;;;27.40;46.50;;;;;;5002635;28;19920;-88
2022/07/19 01:31:21;;;;;;;;;;;27.40;46.50;;;;;;5003521;28;19917;-87
2022/07/19 01:33:47;;;;;;;;;;;27.50;45.90;;;;;;5019834;28;20011;-87
2022/07/19 01:36:13;;;;;;;;;;;27.30;46.10;;;;;;5019682;28;19913;-86
2022/07/19 01:38:38;;;;;;;;;;;27.40;45.80;;;;;;5001996;28;20289;-87
2022/07/19 01:41:05;;;;;;;;;;;27.50;45.30;;;;;;5019150;28;19909;-87
2022/07/19 01:43:30;;;;;;;;;;;27.40;45.30;;;;;;5020393;28;19920;-86
2022/07/19 01:45:56;;;;;;;;;;;27.40;45.20;;;;;;4998459;28;19917;-87
2022/07/19 01:48:21;;;;;;;;;;;27.50;44.60;;;;;;5020726;28;19916;-87
2022/07/19 01:50:47;;;;;;;;;;;27.50;44.50;;;;;;5017262;28;19920;-86
2022/07/19 01:53:12;;;;;;;;;;;27.50;44.20;;;;;;5019997;28;20408;-86
2022/07/19 01:55:38;;;;;;;;;;;27.40;44.20;;;;;;5019201;28;20039;-87
2022/07/19 01:58:04;;;;;;;;;;;27.40;43.90;;;;;;5018741;28;19995;-86
2022/07/19 02:00:29;;;;;;;;;;;27.50;43.70;;;;;;5020001;28;19913;-87
2022/07/19 02:02:55;;;;;;;;;;;27.30;44.20;;;;;;5019716;28;20339;-87
2022/07/19 02:05:20;;;;;;;;;;;27.20;43.90;;;;;;5019730;28;19913;-85
2022/07/19 02:07:47;;;;;;;;;;;27.20;44.30;;;;;;5021135;28;19913;-86
2022/07/19 02:10:12;;;;;;;;;;;27.10;44.30;;;;;;5023988;28;20483;-86
2022/07/19 02:12:38;;;;;;;;;;;27.30;44.00;;;;;;5023944;28;19956;-87
2022/07/19 02:15:04;;;;;;;;;;;27.20;44.80;;;;;;5034918;28;20278;-87
2022/07/19 02:17:29;;;;;;;;;;;27.10;44.70;;;;;;5003889;28;19936;-87
2022/07/19 02:19:55;;;;;;;;;;;27.20;44.00;;;;;;5023697;28;20024;-87
2022/07/19 02:22:20;;;;;;;;;;;27.30;43.90;;;;;;4997613;28;19920;-86
2022/07/19 02:24:46;;;;;;;;;;;27.30;43.90;;;;;;5004488;28;20435;-87
2022/07/19 02:27:11;;;;;;;;;;;27.10;44.10;;;;;;5022390;28;19920;-86
2022/07/19 02:29:37;;;;;;;;;;;27.10;44.40;;;;;;5022940;28;19917;-86
2022/07/19 02:32:03;;;;;;;;;;;27.00;44.40;;;;;;5022616;28;19913;-86
2022/07/19 02:34:29;;;;;;;;;;;26.90;44.50;;;;;;5021586;28;20001;-87
2022/07/19 02:36:54;;;;;;;;;;;26.90;44.60;;;;;;5022045;28;20328;-87
2022/07/19 02:39:20;;;;;;;;;;;26.90;44.70;;;;;;5022407;28;20422;-87
2022/07/19 02:41:45;;;;;;;;;;;26.90;44.80;;;;;;5023687;28;19959;-86
2022/07/19 02:44:11;;;;;;;;;;;26.90;44.90;;;;;;5022822;28;20003;-86
2022/07/19 02:46:37;;;;;;;;;;;26.80;45.10;;;;;;5023418;28;20358;-86
2022/07/19 02:49:03;;;;;;;;;;;26.80;45.30;;;;;;5025720;28;19913;-87
2022/07/19 02:51:28;;;;;;;;;;;26.80;45.30;;;;;;5023631;28;19909;-86
2022/07/19 02:53:54;;;;;;;;;;;26.80;45.40;;;;;;5023318;28;19913;-86
2022/07/19 02:56:19;;;;;;;;;;;27.00;45.10;;;;;;5021851;28;19936;-86
2022/07/19 02:58:45;;;;;;;;;;;27.00;45.20;;;;;;5005056;28;20341;-86
2022/07/19 03:01:10;;;;;;;;;;;26.90;45.20;;;;;;5022934;28;19913;-87
2022/07/19 03:03:46;;;;;;;;;;;26.80;45.40;;;;;;5005698;28;20374;-87
2022/07/19 03:06:13;;;;;;;;;;;26.80;45.20;;;;;;5022913;28;19931;-86
2022/07/19 03:08:38;;;;;;;;;;;26.80;45.30;;;;;;5006052;28;20388;-86
2022/07/19 03:11:04;;;;;;;;;;;26.80;45.30;;;;;;5018712;28;20004;-87
2022/07/19 03:13:30;;;;;;;;;;;27.00;44.60;;;;;;5016343;28;20040;-87
2022/07/19 03:15:55;;;;;;;;;;;27.00;45.10;;;;;;5003449;28;20374;-88
2022/07/19 03:18:21;;;;;;;;;;;26.80;45.10;;;;;;5015904;28;19964;-86
2022/07/19 03:20:46;;;;;;;;;;;26.60;45.50;;;;;;5023682;28;19917;-87
2022/07/19 03:23:12;;;;;;;;;;;26.70;45.30;;;;;;5015667;28;19920;-88
2022/07/19 03:25:37;;;;;;;;;;;26.60;45.50;;;;;;5005695;28;20725;-88
2022/07/19 03:28:03;;;;;;;;;;;26.70;45.50;;;;;;5021763;28;19917;-87
2022/07/19 03:30:29;;;;;;;;;;;26.80;45.10;;;;;;5004456;28;20511;-87
2022/07/19 03:32:54;;;;;;;;;;;26.70;45.20;;;;;;5016130;28;19913;-87
2022/07/19 03:35:20;;;;;;;;;;;26.60;45.20;;;;;;5023263;28;19917;-87
2022/07/19 03:37:46;;;;;;;;;;;26.80;45.20;;;;;;5004248;28;20091;-87
2022/07/19 03:40:12;;;;;;;;;;;26.50;45.40;;;;;;5022501;28;19923;-86
2022/07/19 03:42:37;;;;;;;;;;;26.30;45.70;;;;;;5023259;28;20551;-88
2022/07/19 03:45:03;;;;;;;;;;;26.50;45.20;;;;;;5021605;28;19913;-82
2022/07/19 03:47:29;;;;;;;;;;;26.50;45.20;;;;;;5021903;28;19909;-84
2022/07/19 03:49:54;;;;;;;;;;;26.90;44.70;;;;;;5020301;28;20345;-84
2022/07/19 03:52:20;;;;;;;;;;;26.80;44.90;;;;;;5021709;28;20403;-85
2022/07/19 03:54:45;;;;;;;;;;;26.70;45.00;;;;;;5021745;28;19913;-89
2022/07/19 03:57:11;;;;;;;;;;;26.90;44.70;;;;;;5020530;28;19920;-89
2022/07/19 03:59:36;;;;;;;;;;;26.90;44.60;;;;;;5022017;28;19913;-90
2022/07/19 04:02:02;;;;;;;;;;;26.80;44.80;;;;;;5000365;28;20439;-91
2022/07/19 04:04:27;;;;;;;;;;;26.80;44.70;;;;;;5004418;28;19935;-85
2022/07/19 04:06:53;;;;;;;;;;;26.70;45.10;;;;;;5021717;28;19920;-85
2022/07/19 04:09:18;;;;;;;;;;;26.70;45.10;;;;;;5003897;28;19956;-84
2022/07/19 04:11:44;;;;;;;;;;;26.70;44.90;;;;;;5020365;28;19917;-83
2022/07/19 04:14:09;;;;;;;;;;;26.80;44.60;;;;;;5021144;28;19971;-82
2022/07/19 04:16:35;;;;;;;;;;;26.80;44.60;;;;;;5019858;28;19920;-82
2022/07/19 04:19:01;;;;;;;;;;;26.70;44.70;;;;;;5009221;28;19913;-83
2022/07/19 04:21:26;;;;;;;;;;;26.70;44.80;;;;;;5022824;28;19915;-81
2022/07/19 04:23:52;;;;;;;;;;;26.70;44.70;;;;;;5019576;28;19913;-82
2022/07/19 04:26:17;;;;;;;;;;;26.80;44.60;;;;;;5021936;28;19919;-82
2022/07/19 04:28:43;;;;;;;;;;;26.70;44.60;;;;;;5020377;28;19996;-82
2022/07/19 04:31:08;;;;;;;;;;;26.60;44.70;;;;;;4999004;28;19917;-82
2022/07/19 04:33:34;;;;;;;;;;;26.60;44.80;;;;;;5021205;28;20358;-82
2022/07/19 04:35:59;;;;;;;;;;;26.70;44.70;;;;;;5018829;28;19917;-84
2022/07/19 04:38:25;;;;;;;;;;;26.80;44.60;;;;;;5018537;28;19920;-82
2022/07/19 04:40:51;;;;;;;;;;;26.70;44.70;;;;;;5001850;28;19917;-84
2022/07/19 04:43:17;;;;;;;;;;;27.00;44.30;;;;;;5014021;28;19999;-84
2022/07/19 04:45:44;;;;;;;;;;;27.20;44.20;;;;;;5013865;28;19913;-85
2022/07/19 04:48:13;;;;;;;;;;;27.30;44.00;;;;;;5012258;28;19913;-85
2022/07/19 04:50:39;;;;;;;;;;;27.30;44.40;;;;;;5010354;28;19929;-84
2022/07/19 04:53:04;;;;;;;;;;;27.40;44.80;;;;;;5012318;28;19917;-84
2022/07/19 04:55:30;;;;;;;;;;;27.60;44.20;;;;;;5017577;28;19932;-85
2022/07/19 04:57:55;;;;;;;;;;;27.80;44.10;;;;;;5017296;28;19928;-84
2022/07/19 05:00:21;;;;;;;;;;;27.80;44.70;;;;;;5010640;28;19913;-85
2022/07/19 05:02:46;;;;;;;;;;;27.90;44.70;;;;;;5009157;28;19915;-85
2022/07/19 05:05:13;;;;;;;;;;;28.00;44.80;;;;;;4999662;28;19919;-89
2022/07/19 05:07:39;;;;;;;;;;;27.90;44.70;;;;;;5018355;28;19913;-87
2022/07/19 05:10:05;;;;;;;;;;;28.40;44.30;;;;;;5002186;28;19917;-88
2022/07/19 05:12:31;;;;;;;;;;;28.70;43.70;;;;;;5003989;28;19925;-88
2022/07/19 05:14:58;;;;;;;;;;;29.00;43.00;;;;;;5019763;28;20654;-87
2022/07/19 05:17:24;;;;;;;;;;;29.30;43.60;;;;;;5018257;28;20007;-88
2022/07/19 05:19:49;;;;;;;;;;;29.60;43.00;;;;;;5018995;28;20007;-88
2022/07/19 05:22:15;;;;;;;;;;;29.70;43.00;;;;;;5018461;28;19913;-86
2022/07/19 05:24:40;;;;;;;;;;;30.00;43.40;;;;;;4998336;28;19983;-89
2022/07/19 05:27:06;;;;;;;;;;;30.20;42.70;;;;;;5021373;28;19912;-92
2022/07/19 05:29:31;;;;;;;;;;;30.40;42.20;;;;;;5020449;28;19921;-87
2022/07/19 05:31:57;;;;;;;;;;;30.70;42.70;;;;;;5021333;28;19917;-87
2022/07/19 05:34:22;;;;;;;;;;;30.80;42.00;;;;;;5021692;28;19913;-89
2022/07/19 05:36:48;;;;;;;;;;;31.00;42.30;;;;;;5020853;28;19920;-87
2022/07/19 05:39:14;;;;;;;;;;;31.10;41.60;;;;;;5021842;28;19916;-88
2022/07/19 05:41:40;;;;;;;;;;;31.10;41.20;;;;;;5019722;28;19920;-88
2022/07/19 05:44:06;;;;;;;;;;;31.20;41.40;;;;;;5023611;28;19913;-88
2022/07/19 05:46:31;;;;;;;;;;;31.70;41.70;;;;;;5023313;28;20386;-87
2022/07/19 05:48:57;;;;;;;;;;;32.00;40.90;;;;;;5019592;28;19917;-87
2022/07/19 05:51:22;;;;;;;;;;;32.10;40.80;;;;;;5019519;28;19924;-88
2022/07/19 05:53:48;;;;;;;;;;;32.60;41.70;;;;;;5020942;28;21276;-87
2022/07/19 05:56:13;;;;;;;;;;;32.80;41.30;;;;;;5021347;28;19916;-87
2022/07/19 05:58:39;;;;;;;;;;;32.90;41.30;;;;;;5019559;28;19912;-88
2022/07/19 06:01:18;;;;;;;;;;;33.20;40.60;;;;;;5022851;28;20021;-88
2022/07/19 06:03:44;;;;;;;;;;;33.30;40.20;;;;;;4998522;28;20335;-87
2022/07/19 06:06:09;;;;;;;;;;;33.50;40.40;;;;;;5002847;28;19909;-87
2022/07/19 06:08:35;;;;;;;;;;;33.70;39.70;;;;;;5003593;28;20008;-86
2022/07/19 06:11:00;;;;;;;;;;;34.00;39.80;;;;;;5003999;28;19944;-89
2022/07/19 06:13:26;;;;;;;;;;;34.20;40.20;;;;;;5003312;28;19925;-89
2022/07/19 06:15:51;;;;;;;;;;;34.20;40.00;;;;;;5006535;28;19940;-90
2022/07/19 06:18:17;;;;;;;;;;;34.20;40.00;;;;;;5000732;28;19921;-89
2022/07/19 06:20:43;;;;;;;;;;;34.60;39.80;;;;;;5023616;28;19919;-89
2022/07/19 06:23:08;;;;;;;;;;;35.10;39.20;;;;;;5020462;28;20695;-88
2022/07/19 06:25:34;;;;;;;;;;;35.10;39.30;;;;;;5003378;28;19920;-87
2022/07/19 06:27:59;;;;;;;;;;;35.30;39.00;;;;;;5018447;28;19920;-89
2022/07/19 06:30:25;;;;;;;;;;;35.90;38.60;;;;;;5020047;28;19928;-87
2022/07/19 06:32:51;;;;;;;;;;;35.70;38.50;;;;;;5019696;28;20515;-88
2022/07/19 06:35:16;;;;;;;;;;;35.50;37.50;;;;;;5019048;28;20011;-89
2022/07/19 06:37:42;;;;;;;;;;;36.10;38.40;;;;;;5021950;28;19963;-86
2022/07/19 06:40:08;;;;;;;;;;;36.50;37.80;;;;;;5001864;28;19920;-87
2022/07/19 06:42:34;;;;;;;;;;;36.70;37.70;;;;;;5016300;28;19920;-86
2022/07/19 06:45:01;;;;;;;;;;;36.30;39.80;;;;;;5002028;28;19917;-86
2022/07/19 06:47:32;;;;;;;;;;;36.30;40.00;;;;;;5018287;28;19920;-88
2022/07/19 06:49:58;;;;;;;;;;;36.10;40.80;;;;;;5020788;28;20656;-87
2022/07/19 06:52:24;;;;;;;;;;;36.70;40.20;;;;;;5017698;28;19924;-87
2022/07/19 06:54:49;;;;;;;;;;;36.80;40.10;;;;;;5003502;28;19920;-88
2022/07/19 06:57:15;;;;;;;;;;;37.00;40.20;;;;;;5009339;28;19914;-87
2022/07/19 06:59:40;;;;;;;;;;;37.10;40.10;;;;;;5011132;28;19971;-88
2022/07/19 07:02:06;;;;;;;;;;;37.40;40.20;;;;;;5017724;28;19913;-89
2022/07/19 07:04:32;;;;;;;;;;;37.40;39.40;;;;;;5020508;28;19959;-88
2022/07/19 07:06:57;;;;;;;;;;;37.20;40.40;;;;;;5001774;28;19932;-88
2022/07/19 07:09:23;;;;;;;;;;;37.50;39.70;;;;;;5010502;28;19957;-89
2022/07/19 07:11:49;;;;;;;;;;;37.70;39.10;;;;;;5008470;28;19935;-88
2022/07/19 07:14:14;;;;;;;;;;;37.20;40.00;;;;;;5008135;28;19944;-89
2022/07/19 07:16:40;;;;;;;;;;;37.40;40.10;;;;;;5012205;28;19988;-88
2022/07/19 07:19:05;;;;;;;;;;;37.70;39.30;;;;;;5012670;28;19919;-87
2022/07/19 07:21:34;;;;;;;;;;;37.60;39.90;;;;;;5012642;28;19917;-88
2022/07/19 07:24:06;;;;;;;;;;;37.50;39.50;;;;;;5019178;28;19917;-89
2022/07/19 07:26:32;;;;;;;;;;;36.90;39.00;;;;;;5004085;28;19917;-89
2022/07/19 07:28:58;;;;;;;;;;;37.30;38.30;;;;;;5015027;28;20050;-88
2022/07/19 07:31:24;;;;;;;;;;;38.00;38.30;;;;;;5013553;28;20428;-87
2022/07/19 07:33:49;;;;;;;;;;;38.00;38.00;;;;;;5010554;28;19913;-89
2022/07/19 07:36:15;;;;;;;;;;;38.20;37.60;;;;;;5014496;28;19962;-89
2022/07/19 07:38:40;;;;;;;;;;;38.10;37.60;;;;;;5010684;28;19917;-89
2022/07/19 07:41:06;;;;;;;;;;;38.50;37.90;;;;;;5007818;28;19913;-87
2022/07/19 07:43:31;;;;;;;;;;;38.60;38.20;;;;;;5006534;28;20275;-88
2022/07/19 07:45:57;;;;;;;;;;;38.60;38.10;;;;;;5008895;28;20377;-89
2022/07/19 07:48:23;;;;;;;;;;;39.00;38.30;;;;;;5005912;28;20476;-88
2022/07/19 07:50:49;;;;;;;;;;;39.20;38.40;;;;;;5010625;28;19921;-88
2022/07/19 07:53:14;;;;;;;;;;;39.20;39.40;;;;;;5007015;28;19987;-89
2022/07/19 07:55:40;;;;;;;;;;;38.80;39.50;;;;;;5013961;28;19956;-88
2022/07/19 07:58:06;;;;;;;;;;;39.50;39.40;;;;;;5011261;28;19936;-88
2022/07/19 08:00:32;;;;;;;;;;;39.50;40.30;;;;;;5008914;28;19913;-87
2022/07/19 08:02:57;;;;;;;;;;;39.60;39.60;;;;;;5011375;28;20771;-88
2022/07/19 08:05:23;;;;;;;;;;;39.80;40.80;;;;;;5007709;28;19913;-88
2022/07/19 08:07:49;;;;;;;;;;;39.40;41.40;;;;;;5008996;28;19917;-88
2022/07/19 08:10:15;;;;;;;;;;;39.90;41.00;;;;;;5010486;28;20016;-87
2022/07/19 08:12:40;;;;;;;;;;;39.90;40.50;;;;;;5003975;28;20663;-88
2022/07/19 08:15:06;;;;;;;;;;;39.80;40.30;;;;;;5008181;28;20730;-88
2022/07/19 08:17:32;;;;;;;;;;;40.30;40.80;;;;;;5003139;28;19917;-88
2022/07/19 08:19:58;;;;;;;;;;;40.60;41.20;;;;;;5007444;28;19917;-88
2022/07/19 08:22:23;;;;;;;;;;;40.50;41.00;;;;;;5002690;28;19955;-88
2022/07/19 08:24:49;;;;;;;;;;;40.50;40.80;;;;;;4990349;28;19995;-86
2022/07/19 08:27:14;;;;;;;;;;;41.00;41.50;;;;;;4995444;28;19921;-88
2022/07/19 08:29:40;;;;;;;;;;;41.00;41.30;;;;;;4991905;28;19917;-89
2022/07/19 08:32:06;;;;;;;;;;;41.00;41.10;;;;;;5007965;28;20461;-88
2022/07/19 08:34:31;;;;;;;;;;;41.60;41.30;;;;;;5014694;28;19983;-88
2022/07/19 08:36:57;;;;;;;;;;;41.50;41.00;;;;;;5014588;28;20369;-90
2022/07/19 08:39:22;;;;;;;;;;;41.50;41.60;;;;;;5013564;28;19935;-89
2022/07/19 08:41:48;;;;;;;;;;;41.80;41.00;;;;;;5010302;28;20358;-88
2022/07/19 08:44:16;;;;;;;;;;;41.90;41.60;;;;;;5009206;28;19913;-89
2022/07/19 08:46:42;;;;;;;;;;;41.90;42.00;;;;;;5014940;28;19913;-90
2022/07/19 08:49:10;;;;;;;;;;;41.80;41.60;;;;;;5017426;28;19917;-89
2022/07/19 08:51:36;;;;;;;;;;;42.90;40.80;;;;;;5016943;28;19917;-88
2022/07/19 08:54:02;;;;;;;;;;;43.20;39.90;;;;;;5014971;28;19916;-89
2022/07/19 08:59:13;;;;;;;;;;;43.40;39.30;;;;;;5018057;28;19967;-90
2022/07/19 09:01:38;;;;;;;;;;;43.60;39.90;;;;;;5017579;28;19917;-89
2022/07/19 09:04:05;;;;;;;;;;;44.20;38.70;;;;;;5016517;28;20404;-89
2022/07/19 09:06:57;;;;;;;;;;;43.30;39.30;;;;;;5018914;28;19909;-89
2022/07/19 09:09:27;;;;;;;;;;;41.80;40.60;;;;;;4997973;28;19917;-88
2022/07/19 09:11:53;;;;;;;;;;;41.50;40.60;;;;;;5016763;28;19913;-89
2022/07/19 09:14:20;;;;;;;;;;;43.20;40.50;;;;;;5018043;28;19913;-89
2022/07/19 09:16:57;;;;;;;;;;;43.00;40.90;;;;;;5018742;28;19972;-89
2022/07/19 09:19:24;;;;;;;;;;;42.90;40.70;;;;;;5016070;28;19913;-90
2022/07/19 09:21:50;;;;;;;;;;;42.50;42.20;;;;;;5017595;28;19995;-90
2022/07/19 09:24:16;;;;;;;;;;;42.60;42.10;;;;;;5002208;28;19999;-90
2022/07/19 09:26:54;;;;;;;;;;;42.40;41.20;;;;;;5020801;28;20448;-88
2022/07/19 09:29:19;;;;;;;;;;;43.40;40.70;;;;;;5005054;28;19954;-90
2022/07/19 09:32:05;;;;;;;;;;;43.10;41.30;;;;;;4996929;28;20363;-89
2022/07/19 09:34:35;;;;;;;;;;;43.90;41.60;;;;;;5016520;28;19913;-89
2022/07/19 09:37:14;;;;;;;;;;;44.30;41.00;;;;;;5018208;28;19953;-89
2022/07/19 09:39:49;;;;;;;;;;;44.70;40.10;;;;;;5019776;28;19906;-90
2022/07/19 09:42:22;;;;;;;;;;;44.00;40.80;;;;;;5021769;28;20737;-89
2022/07/19 09:44:56;;;;;;;;;;;43.90;40.40;;;;;;5016364;28;19917;-88
2022/07/19 09:47:29;;;;;;;;;;;43.40;40.30;;;;;;5017658;28;20047;-88
2022/07/19 09:49:55;;;;;;;;;;;43.30;41.50;;;;;;5018383;28;20365;-90
2022/07/19 09:52:21;;;;;;;;;;;43.10;40.20;;;;;;5014592;28;19917;-88
2022/07/19 09:54:46;;;;;;;;;;;44.30;40.50;;;;;;5022714;28;19912;-89
2022/07/19 09:57:13;;;;;;;;;;;43.40;39.80;;;;;;5001188;28;19916;-89
2022/07/19 09:59:45;;;;;;;;;;;43.90;40.00;;;;;;5018679;28;19999;-88
2022/07/19 10:02:11;;;;;;;;;;;43.30;40.50;;;;;;5001626;28;20000;-89
2022/07/19 10:04:37;;;;;;;;;;;43.80;40.40;;;;;;5013140;28;20611;-89
2022/07/19 10:07:02;;;;;;;;;;;43.90;40.50;;;;;;5020107;28;19939;-88
2022/07/19 10:09:28;;;;;;;;;;;43.20;40.90;;;;;;5017733;28;19920;-89
2022/07/19 10:11:54;;;;;;;;;;;43.70;41.10;;;;;;5017216;28;20003;-89
2022/07/19 10:14:20;;;;;;;;;;;43.00;40.60;;;;;;5016918;28;19925;-89
2022/07/19 10:16:46;;;;;;;;;;;43.60;40.40;;;;;;5003462;28;19920;-90
2022/07/19 10:19:22;;;;;;;;;;;42.70;41.60;;;;;;5021045;28;19913;-89
2022/07/19 10:21:48;;;;;;;;;;;42.20;42.60;;;;;;5019927;28;19917;-89
2022/07/19 10:24:13;;;;;;;;;;;42.90;40.90;;;;;;5017053;28;19917;-88
2022/07/19 10:26:40;;;;;;;;;;;42.10;41.80;;;;;;5020447;28;19916;-89
2022/07/19 10:29:15;;;;;;;;;;;43.20;40.30;;;;;;5006470;28;19943;-88
2022/07/19 10:31:43;;;;;;;;;;;43.70;41.00;;;;;;5024354;28;20036;-88
2022/07/19 10:34:10;;;;;;;;;;;42.90;40.70;;;;;;5023893;28;19924;-90
2022/07/19 10:36:35;;;;;;;;;;;43.00;41.20;;;;;;5003521;28;19913;-88
2022/07/19 10:39:19;;;;;;;;;;;42.00;41.70;;;;;;5017778;28;19920;-89
2022/07/19 10:42:03;;;;;;;;;;;40.60;42.60;;;;;;5019923;28;19921;-88
2022/07/19 10:44:30;;;;;;;;;;;38.80;44.20;;;;;;5021201;28;19959;-88
2022/07/19 10:46:55;;;;;;;;;;;38.90;45.30;;;;;;5022405;28;19913;-88
2022/07/19 10:49:39;;;;;;;;;;;38.20;45.70;;;;;;5023210;28;19962;-88
2022/07/19 10:52:23;;;;;;;;;;;38.00;47.60;;;;;;5020484;28;19917;-89
2022/07/19 10:55:09;;;;;;;;;;;38.00;47.00;;;;;;5017217;28;19912;-88
2022/07/19 10:57:36;;;;;;;;;;;37.50;46.10;;;;;;5012072;28;19928;-90
2022/07/19 11:00:15;;;;;;;;;;;37.30;47.30;;;;;;5022567;28;20320;-90
2022/07/19 11:02:40;;;;;;;;;;;36.70;47.20;;;;;;5019091;28;20012;-87
2022/07/19 11:05:06;;;;;;;;;;;36.70;48.20;;;;;;5022790;28;20003;-89
2022/07/19 11:07:31;;;;;;;;;;;36.60;48.30;;;;;;5015589;28;19924;-88
2022/07/19 11:09:58;;;;;;;;;;;36.20;49.30;;;;;;5018354;28;20333;-89
2022/07/19 11:12:24;;;;;;;;;;;36.80;49.60;;;;;;5016117;28;20023;-89
2022/07/19 11:14:49;;;;;;;;;;;36.30;49.50;;;;;;5000920;28;20523;-89
2022/07/19 11:17:15;;;;;;;;;;;36.30;50.50;;;;;;5020385;28;19923;-90
2022/07/19 11:20:01;;;;;;;;;;;36.70;49.20;;;;;;5021385;28;19978;-89
2022/07/19 11:22:31;;;;;;;;;;;36.30;50.00;;;;;;5015339;28;20587;-88
2022/07/19 11:24:57;;;;;;;;;;;36.10;50.40;;;;;;4995724;28;19936;-88
2022/07/19 11:27:23;;;;;;;;;;;36.00;51.00;;;;;;5018721;28;20620;-89
2022/07/19 11:29:53;;;;;;;;;;;36.20;50.60;;;;;;5017751;28;19940;-89
2022/07/19 11:32:19;;;;;;;;;;;36.10;49.80;;;;;;5017926;28;20674;-89
2022/07/19 11:34:54;;;;;;;;;;;35.80;49.60;;;;;;5019657;28;19909;-88
2022/07/19 11:37:24;;;;;;;;;;;35.80;50.70;;;;;;5019565;28;20713;-89
2022/07/19 11:39:50;;;;;;;;;;;35.60;50.30;;;;;;5021292;28;19909;-89
2022/07/19 11:42:26;;;;;;;;;;;35.60;50.80;;;;;;5013403;28;19913;-89
2022/07/19 11:44:52;;;;;;;;;;;35.70;50.70;;;;;;5002051;28;19916;-89
2022/07/19 11:47:18;;;;;;;;;;;35.10;49.50;;;;;;5017395;28;19917;-88
2022/07/19 11:49:43;;;;;;;;;;;35.30;51.50;;;;;;5015286;28;19970;-88
2022/07/19 11:52:09;;;;;;;;;;;35.40;50.80;;;;;;4996892;28;19920;-88
2022/07/19 11:54:34;;;;;;;;;;;35.60;51.40;;;;;;5017552;28;21558;-87
2022/07/19 11:57:00;;;;;;;;;;;35.20;50.50;;;;;;4994869;28;20373;-89
2022/07/19 11:59:25;;;;;;;;;;;35.10;50.80;;;;;;5002056;28;19917;-88
2022/07/19 12:01:54;;;;;;;;;;;34.90;52.00;;;;;;5017934;28;20296;-88
2022/07/19 12:04:20;;;;;;;;;;;35.10;52.90;;;;;;5018350;28;20403;-88
2022/07/19 12:06:52;;;;;;;;;;;35.30;52.40;;;;;;5019208;28;19917;-89
2022/07/19 12:09:27;;;;;;;;;;;35.10;51.10;;;;;;5017610;28;19996;-88
2022/07/19 12:11:54;;;;;;;;;;;35.10;52.20;;;;;;5018057;28;19917;-88
2022/07/19 12:14:25;;;;;;;;;;;34.80;50.60;;;;;;5009639;28;19952;-90
2022/07/19 12:17:11;;;;;;;;;;;34.90;51.90;;;;;;4995677;28;19909;-89
2022/07/19 12:19:37;;;;;;;;;;;35.00;53.10;;;;;;5018968;28;20483;-89
2022/07/19 12:22:06;;;;;;;;;;;34.90;53.00;;;;;;5022712;28;19940;-90
2022/07/19 12:24:51;;;;;;;;;;;34.50;53.20;;;;;;5019165;28;19920;-90
2022/07/19 12:27:29;;;;;;;;;;;34.90;53.30;;;;;;4999865;28;20006;-90
2022/07/19 12:29:55;;;;;;;;;;;35.00;54.00;;;;;;4992394;28;19921;-89
2022/07/19 12:32:28;;;;;;;;;;;35.00;53.10;;;;;;5017332;28;19923;-90
2022/07/19 12:35:00;;;;;;;;;;;35.00;53.40;;;;;;5016547;28;19920;-89
2022/07/19 12:37:30;;;;;;;;;;;34.80;52.70;;;;;;5018221;28;19960;-90
2022/07/19 12:39:56;;;;;;;;;;;34.50;52.80;;;;;;5022638;28;20567;-88
2022/07/19 12:42:21;;;;;;;;;;;34.80;54.00;;;;;;5016951;28;19913;-88
2022/07/19 12:44:49;;;;;;;;;;;34.90;55.10;;;;;;4999799;28;19978;-91
2022/07/19 12:47:15;;;;;;;;;;;34.70;54.10;;;;;;5021027;28;19913;-86
2022/07/19 12:49:44;;;;;;;;;;;34.60;54.00;;;;;;5016614;28;19948;-89
2022/07/19 12:52:13;;;;;;;;;;;34.50;54.10;;;;;;5017514;28;20531;-90
2022/07/19 12:54:43;;;;;;;;;;;34.60;54.30;;;;;;5015543;28;19941;-90
2022/07/19 12:57:09;;;;;;;;;;;34.50;53.70;;;;;;5017371;28;19924;-89
2022/07/19 13:00:08;;;;;;;;;;;34.60;53.90;;;;;;5020649;28;20011;-88
2022/07/19 13:02:26;;;;;;;;;;;34.70;53.90;;;;;;5007763;28;20024;-88
2022/07/19 13:04:52;;;;;;;;;;;34.40;53.00;;;;;;5018145;28;20440;-88
2022/07/19 13:07:18;;;;;;;;;;;34.40;54.10;;;;;;5021144;28;20136;-88
2022/07/19 13:09:44;;;;;;;;;;;34.50;53.20;;;;;;5013501;28;19916;-88
2022/07/19 13:12:10;;;;;;;;;;;34.50;53.30;;;;;;5019225;28;20497;-90
2022/07/19 13:14:36;;;;;;;;;;;34.30;54.00;;;;;;5016029;28;20460;-88
2022/07/19 13:17:05;;;;;;;;;;;34.40;54.30;;;;;;5014465;28;19920;-89
2022/07/19 13:19:31;;;;;;;;;;;34.20;53.40;;;;;;5016790;28;19937;-89
2022/07/19 13:21:58;;;;;;;;;;;34.10;54.00;;;;;;4996144;28;20427;-89
2022/07/19 13:24:23;;;;;;;;;;;34.30;53.70;;;;;;5011350;28;19971;-88
2022/07/19 13:26:50;;;;;;;;;;;34.30;54.20;;;;;;5000785;28;20328;-89
2022/07/19 13:29:16;;;;;;;;;;;34.30;53.70;;;;;;5021626;28;19920;-90
2022/07/19 13:31:44;;;;;;;;;;;34.40;54.20;;;;;;5017526;28;19971;-90
2022/07/19 13:34:10;;;;;;;;;;;34.30;53.70;;;;;;4998461;28;19912;-89
2022/07/19 13:36:35;;;;;;;;;;;34.20;53.30;;;;;;5001575;28;20377;-90
2022/07/19 13:39:01;;;;;;;;;;;34.10;54.10;;;;;;5018959;28;19913;-89
2022/07/19 13:41:27;;;;;;;;;;;34.20;53.20;;;;;;5018342;28;20368;-88
2022/07/19 13:43:53;;;;;;;;;;;34.10;53.00;;;;;;4987942;28;19917;-87
2022/07/19 13:46:19;;;;;;;;;;;34.00;54.50;;;;;;5019607;28;19929;-89
2022/07/19 13:48:44;;;;;;;;;;;34.00;53.20;;;;;;4996460;28;19963;-88
2022/07/19 13:51:10;;;;;;;;;;;34.00;53.60;;;;;;5004198;28;19978;-88
2022/07/19 13:53:36;;;;;;;;;;;34.10;53.70;;;;;;5019045;28;19913;-89
2022/07/19 13:56:02;;;;;;;;;;;34.10;54.70;;;;;;5020229;28;19917;-90
2022/07/19 13:58:27;;;;;;;;;;;34.10;53.80;;;;;;5018350;28;20640;-86
2022/07/19 14:00:56;;;;;;;;;;;34.10;53.70;;;;;;5019244;28;19912;-88
2022/07/19 14:03:31;;;;;;;;;;;34.00;53.50;;;;;;5020111;28;22253;-88
2022/07/19 14:05:59;;;;;;;;;;;33.90;54.00;;;;;;5019449;28;19921;-90
2022/07/19 14:08:25;;;;;;;;;;;33.90;54.00;;;;;;5020600;28;19917;-90
2022/07/19 14:10:50;;;;;;;;;;;33.70;53.00;;;;;;5007663;28;21066;-88
2022/07/19 14:13:19;;;;;;;;;;;33.80;54.60;;;;;;5017220;28;19927;-87
2022/07/19 14:16:31;;;;;;;;;;;;;;;;;;;;;
2022/07/19 14:22:00;;;;;;;;;;;33.70;54.10;;;;;;5045502;22;19941;-79
2022/07/19 14:24:26;;;;;;;;;;;33.80;54.60;;;;;;5015279;28;19916;-78